Time;durP1;ratioP1;P1;durP2;ratioP2;P2;SDS_P1;SDS_P2;PMS_P1;PMS_P2;Temp;Humidity;BMP_temperature;BMP_pressure;BME280_temperature;BME280_humidity;BME280_pressure;Samples;Min_cycle;Max_cycle;Signal;HPM_P1;HPM_P2
2023/09/05 00:02:03;;;;;;;;;5.25;4.25;;;;;25.23;48.17;101052.97;5100818;27;45178;-73
2023/09/05 00:04:29;;;;;;;;;5.00;5.00;;;;;25.23;48.12;101058.41;5100820;27;45529;-74
2023/09/05 00:06:55;;;;;;;;;6.00;6.00;;;;;25.12;48.26;101039.13;5100816;27;45458;-73
2023/09/05 00:09:21;;;;;;;;;5.00;5.00;;;;;24.99;48.61;101033.88;5102315;27;45351;-75
2023/09/05 00:11:46;;;;;;;;;4.50;4.50;;;;;24.99;48.31;101033.88;5101580;27;45503;-71
2023/09/05 00:14:12;;;;;;;;;5.00;5.00;;;;;25.15;48.14;101065.03;5101080;27;45331;-72
2023/09/05 00:16:38;;;;;;;;;4.25;4.25;;;;;24.99;48.34;101033.88;5100457;27;45570;-74
2023/09/05 00:19:04;;;;;;;;;5.00;5.00;;;;;25.03;48.31;101045.97;5083032;27;46090;-72
2023/09/05 00:21:30;;;;;;;;;6.25;6.25;;;;;25.05;48.74;101060.16;5082494;27;45269;-72
2023/09/05 00:24:33;;;;;;;;;7.00;6.00;;;;;25.06;48.50;101063.72;5100742;27;45239;-73
2023/09/05 00:27:00;;;;;;;;;7.25;6.00;;;;;25.06;48.66;101067.28;5100511;27;45736;-74
2023/09/05 00:29:26;;;;;;;;;6.33;6.33;;;;;25.04;48.70;101053.06;5100418;27;45312;-71
2023/09/05 00:31:52;;;;;;;;;6.25;6.25;;;;;24.93;48.86;101048.38;5101010;27;45266;-73
2023/09/05 00:34:18;;;;;;;;;6.00;6.00;;;;;25.00;48.66;101060.00;5083320;27;45233;-72
2023/09/05 00:36:47;;;;;;;;;9.67;9.00;;;;;24.93;48.64;101045.66;5100121;27;49888;-73
2023/09/05 00:39:13;;;;;;;;;5.50;5.50;;;;;24.95;48.42;101048.97;5100380;27;45325;-71
2023/09/05 00:41:38;;;;;;;;;5.00;5.00;;;;;24.99;48.76;101061.06;5100471;27;45321;-73
2023/09/05 00:44:04;;;;;;;;;4.67;4.00;;;;;24.74;48.32;101009.53;5100668;27;45511;-72
2023/09/05 00:46:32;;;;;;;;;5.00;4.67;;;;;24.96;48.54;101057.97;5100104;27;45648;-74
2023/09/05 00:49:02;;;;;;;;;5.67;5.67;;;;;24.94;48.60;101049.19;5100079;27;45517;-73
2023/09/05 00:51:29;;;;;;;;;5.67;5.33;;;;;24.63;48.97;101012.19;5100277;27;45544;-74
2023/09/05 00:53:54;;;;;;;;;6.67;6.67;;;;;24.28;49.02;100966.63;5081727;27;45494;-73
2023/09/05 00:56:20;;;;;;;;;4.00;4.00;;;;;24.78;49.00;101042.50;5100068;27;46777;-72
2023/09/05 00:58:46;;;;;;;;;6.33;5.33;;;;;24.78;49.04;101050.69;5082418;27;45820;-73
2023/09/05 01:01:11;;;;;;;;;4.33;4.00;;;;;24.48;49.28;101010.72;5100648;27;45269;-72
2023/09/05 01:03:36;;;;;;;;;5.00;5.00;;;;;24.17;49.03;100959.25;5100292;27;45302;-73
2023/09/05 01:06:08;;;;;;;;;6.67;4.33;;;;;24.66;49.20;101055.25;5081309;27;46895;-73
2023/09/05 01:08:52;;;;;;;;;7.00;6.00;;;;;24.55;49.72;101038.63;5100072;27;45316;-74
2023/09/05 01:11:19;;;;;;;;;8.67;7.00;;;;;24.50;49.54;101038.50;5100225;27;45343;-71
2023/09/05 01:13:44;;;;;;;;;5.67;5.33;;;;;24.51;49.53;101048.31;5100108;27;45268;-72
2023/09/05 01:16:09;;;;;;;;;5.67;4.67;;;;;24.53;49.79;101051.63;5099630;27;46992;-72
2023/09/05 01:18:39;;;;;;;;;5.00;5.00;;;;;24.50;50.03;101046.66;5099597;27;45207;-73
2023/09/05 01:21:29;;;;;;;;;6.33;6.33;;;;;24.48;49.85;101051.50;5099847;27;45426;-72
2023/09/05 01:24:09;;;;;;;;;6.33;4.00;;;;;24.47;49.71;101047.13;5099833;27;45236;-73
2023/09/05 01:26:34;;;;;;;;;5.67;4.67;;;;;24.13;49.90;100993.38;5081785;27;45453;-72
2023/09/05 01:29:01;;;;;;;;;8.33;5.67;;;;;24.27;49.58;101019.31;5081475;27;45536;-72
2023/09/05 01:31:27;;;;;;;;;4.67;4.67;;;;;24.19;50.28;101003.31;5081272;27;45304;-74
2023/09/05 01:33:52;;;;;;;;;5.67;5.67;;;;;24.33;50.00;101033.91;5081427;27;45646;-74
2023/09/05 01:36:17;;;;;;;;;5.00;5.00;;;;;24.20;50.08;101013.94;5082652;27;48344;-71
2023/09/05 01:38:43;;;;;;;;;5.67;5.67;;;;;23.92;50.13;100968.31;5100329;27;45386;-71
2023/09/05 01:41:08;;;;;;;;;5.33;4.33;;;;;24.29;50.29;101038.97;5099189;27;45201;-74
2023/09/05 01:43:34;;;;;;;;;6.00;5.33;;;;;24.11;50.32;101025.34;5100038;27;45469;-71
2023/09/05 01:45:59;;;;;;;;;7.33;5.33;;;;;24.23;50.03;101039.88;5099048;27;50956;-73
2023/09/05 01:48:24;;;;;;;;;6.00;6.00;;;;;24.18;50.14;101043.22;5103863;27;45333;-72
2023/09/05 01:50:50;;;;;;;;;4.00;4.00;;;;;23.95;50.37;101008.59;5120122;27;45574;-75
2023/09/05 01:53:15;;;;;;;;;8.00;8.00;;;;;23.83;50.04;100990.59;5119803;27;48171;-72
2023/09/05 01:55:40;;;;;;;;;6.25;4.75;;;;;24.14;50.06;101035.78;5119818;27;50122;-75
2023/09/05 01:58:05;;;;;;;;;7.75;4.00;;;;;24.12;50.32;101032.44;5101248;27;45471;-71
2023/09/05 02:00:32;;;;;;;;;5.33;5.33;;;;;24.04;50.28;101025.44;5119657;27;45379;-74
2023/09/05 02:02:57;;;;;;;;;7.00;5.33;;;;;23.60;50.23;100961.34;5119991;27;45216;-73
2023/09/05 02:05:23;;;;;;;;;6.33;6.33;;;;;23.95;50.89;101024.06;5119180;27;45794;-72
2023/09/05 02:07:48;;;;;;;;;6.33;5.00;;;;;23.93;50.82;101023.47;5101046;27;45257;-75
2023/09/05 02:10:13;;;;;;;;;6.50;5.50;;;;;23.65;50.62;100977.81;5119547;27;45717;-76
2023/09/05 02:12:44;;;;;;;;;6.00;5.75;;;;;23.85;51.31;101021.06;5120012;27;45215;-73
2023/09/05 02:15:10;;;;;;;;;4.75;4.75;;;;;23.70;50.91;100996.97;5119325;27;45770;-74
2023/09/05 02:17:36;;;;;;;;;5.00;5.00;;;;;23.54;51.03;100970.38;5119346;27;45315;-74
2023/09/05 02:20:01;;;;;;;;;5.25;5.25;;;;;23.76;50.81;101019.66;5119531;27;45345;-71
2023/09/05 02:22:27;;;;;;;;;5.67;5.67;;;;;23.70;51.11;101005.09;5119792;27;45554;-74
2023/09/05 02:24:52;;;;;;;;;6.00;6.00;;;;;23.34;50.89;100944.25;5118203;27;46382;-73
2023/09/05 02:27:17;;;;;;;;;6.00;4.67;;;;;23.66;51.30;101012.03;5118833;27;54169;-73
2023/09/05 02:29:56;;;;;;;;;6.33;6.33;;;;;23.62;51.11;101016.25;5100699;27;45206;-71
2023/09/05 02:32:22;;;;;;;;;6.00;5.00;;;;;23.58;50.80;101006.88;5119529;27;45527;-75
2023/09/05 02:34:51;;;;;;;;;6.00;5.00;;;;;23.56;50.93;100993.53;5118996;27;46542;-73
2023/09/05 02:37:17;;;;;;;;;6.33;5.33;;;;;23.60;51.11;101007.50;5118892;27;45318;-73
2023/09/05 02:39:42;;;;;;;;;7.50;7.00;;;;;23.59;50.99;101017.53;5100658;27;45285;-72
2023/09/05 02:42:07;;;;;;;;;5.33;5.33;;;;;23.50;51.66;101001.72;5119259;27;45572;-74
2023/09/05 02:44:33;;;;;;;;;6.67;6.67;;;;;23.11;51.12;100954.06;5119301;27;56631;-75
2023/09/05 02:46:58;;;;;;;;;4.33;4.33;;;;;23.49;51.17;101013.63;5120756;27;45219;-72
2023/09/05 02:49:23;;;;;;;;;6.00;6.00;;;;;23.55;51.31;101015.44;5102187;27;45438;-72
2023/09/05 02:51:49;;;;;;;;;6.33;6.33;;;;;23.48;51.72;101020.13;5119230;27;45261;-75
2023/09/05 02:54:14;;;;;;;;;6.00;6.00;;;;;23.42;51.57;101004.69;5119036;27;45615;-73
2023/09/05 02:56:40;;;;;;;;;6.00;6.00;;;;;23.40;52.09;101006.81;5118923;27;45476;-73
2023/09/05 02:59:05;;;;;;;;;6.67;6.67;;;;;23.32;51.66;100997.06;5118928;27;45362;-72
2023/09/05 03:01:31;;;;;;;;;5.33;5.33;;;;;23.40;52.13;101010.34;5101429;27;45478;-73
2023/09/05 03:03:56;;;;;;;;;7.33;7.33;;;;;23.46;52.02;101016.78;5119155;27;45628;-72
2023/09/05 03:06:21;;;;;;;;;6.00;6.00;;;;;23.29;52.02;100992.09;5118695;27;45501;-73
2023/09/05 03:08:47;;;;;;;;;6.67;6.67;;;;;23.36;51.88;101007.25;5118626;27;45436;-72
2023/09/05 03:11:17;;;;;;;;;13.67;13.67;;;;;23.37;52.11;101018.94;5097940;27;45351;-72
2023/09/05 03:13:44;;;;;;;;;7.67;7.67;;;;;23.05;52.16;100955.78;5094021;27;48661;-73
2023/09/05 03:16:09;;;;;;;;;7.25;6.25;;;;;23.29;52.04;100998.34;5099899;27;45460;-72
2023/09/05 03:18:35;;;;;;;;;9.67;7.67;;;;;23.34;52.13;101009.38;5098844;27;45472;-72
2023/09/05 03:21:00;;;;;;;;;6.00;5.00;;;;;23.25;51.90;100999.03;5097850;27;45384;-73
2023/09/05 03:23:26;;;;;;;;;5.33;5.33;;;;;23.28;52.01;101004.00;5097723;27;45465;-73
2023/09/05 03:25:52;;;;;;;;;5.67;5.67;;;;;23.02;52.58;100961.63;5097650;27;45473;-74
2023/09/05 03:28:18;;;;;;;;;8.75;6.75;;;;;23.00;52.42;100963.72;5097910;27;45517;-73
2023/09/05 03:30:44;;;;;;;;;5.67;5.67;;;;;22.99;52.63;100973.75;5079511;27;45323;-72
2023/09/05 03:33:09;;;;;;;;;6.00;4.67;;;;;23.16;52.86;101005.75;5097341;27;46345;-73
2023/09/05 03:35:35;;;;;;;;;6.00;6.00;;;;;23.03;52.50;100976.88;5096920;27;45408;-74
2023/09/05 03:38:02;;;;;;;;;6.33;6.33;;;;;23.15;52.83;100996.78;5080224;27;45309;-71
2023/09/05 03:40:29;;;;;;;;;8.33;8.33;;;;;23.13;52.78;100990.75;5099220;27;45541;-72
2023/09/05 03:42:54;;;;;;;;;2.00;2.00;;;;;22.97;53.16;100975.03;5097959;27;45764;-73
2023/09/05 03:45:21;;;;;;;;;9.00;8.00;;;;;22.57;52.90;100904.78;5097416;27;45438;-74
2023/09/05 03:47:46;;;;;;;;;7.33;7.00;;;;;22.99;52.96;100973.75;5097879;27;45348;-72
2023/09/05 03:50:13;;;;;;;;;7.00;6.00;;;;;22.85;52.88;100955.94;5097393;27;45501;-74
2023/09/05 03:52:38;;;;;;;;;8.00;7.00;;;;;22.98;53.15;100987.53;5097141;27;46924;-72
2023/09/05 03:55:05;;;;;;;;;5.67;5.67;;;;;22.91;53.10;100970.47;5097631;27;45518;-73
2023/09/05 03:57:30;;;;;;;;;6.00;6.00;;;;;22.68;53.47;100952.06;5097612;27;45232;-73
2023/09/05 03:59:55;;;;;;;;;6.00;6.00;;;;;22.88;53.46;100970.94;5097651;27;45323;-73
2023/09/05 04:02:21;;;;;;;;;8.00;5.00;;;;;22.70;53.19;100941.81;5097254;27;46570;-73
2023/09/05 04:04:46;;;;;;;;;9.00;6.00;;;;;22.80;53.02;100952.16;5097813;27;45284;-72
2023/09/05 04:07:11;;;;;;;;;6.33;5.33;;;;;22.45;53.15;100893.00;5098123;27;45466;-73
2023/09/05 04:09:37;;;;;;;;;8.67;7.00;;;;;22.63;53.22;100914.78;5097623;27;45311;-72
2023/09/05 04:12:02;;;;;;;;;6.00;5.00;;;;;22.94;53.27;100964.63;5096839;27;46037;-75
2023/09/05 04:14:28;;;;;;;;;9.00;8.00;;;;;22.87;53.04;100943.00;5096830;27;45356;-75
2023/09/05 04:16:53;;;;;;;;;6.00;6.00;;;;;22.73;52.85;100923.25;5097098;27;45220;-77
2023/09/05 04:19:18;;;;;;;;;7.00;7.00;;;;;22.88;53.05;100951.94;5096990;27;45489;-74
2023/09/05 04:21:43;;;;;;;;;6.00;6.00;;;;;22.90;53.15;100956.09;5079319;27;48347;-71
2023/09/05 04:24:09;;;;;;;;;10.00;8.00;;;;;22.60;53.24;100917.91;5098144;27;51907;-74
2023/09/05 04:26:34;;;;;;;;;8.33;6.00;;;;;22.84;52.79;100964.28;5089880;27;45387;-74
2023/09/05 04:29:00;;;;;;;;;7.00;7.00;;;;;22.51;53.21;100911.09;5118344;27;45458;-72
2023/09/05 04:31:26;;;;;;;;;7.00;5.67;;;;;22.80;53.58;100981.97;5099147;27;48378;-73
2023/09/05 04:33:54;;;;;;;;;6.25;6.25;;;;;22.78;53.70;100999.31;5117351;27;45392;-74
2023/09/05 04:36:19;;;;;;;;;6.00;6.00;;;;;22.61;53.45;100976.47;5117374;27;45535;-74
2023/09/05 04:38:44;;;;;;;;;7.67;7.33;;;;;22.72;53.81;101002.06;5117617;27;45549;-71
2023/09/05 04:41:10;;;;;;;;;7.00;6.33;;;;;22.60;53.99;100984.81;5098252;27;45371;-73
2023/09/05 04:43:36;;;;;;;;;7.00;6.00;;;;;22.66;53.66;100992.94;5117196;27;45319;-73
2023/09/05 04:46:05;;;;;;;;;7.33;7.33;;;;;22.47;53.51;100964.06;5117488;27;45220;-73
2023/09/05 04:48:31;;;;;;;;;8.00;8.00;;;;;22.66;53.82;101001.06;5119399;27;45346;-73
2023/09/05 04:50:59;;;;;;;;;8.67;7.67;;;;;22.80;53.65;101020.78;5120366;27;46074;-73
2023/09/05 04:53:24;;;;;;;;;8.67;5.67;;;;;22.69;53.59;101006.03;5115275;27;45518;-73
2023/09/05 04:55:51;;;;;;;;;10.00;8.00;;;;;22.70;53.32;101007.69;5121612;27;45433;-73
2023/09/05 04:58:17;;;;;;;;;5.00;5.00;;;;;22.65;53.80;101022.97;5103146;27;45329;-73
2023/09/05 05:00:43;;;;;;;;;1.67;0.00;;;;;22.72;53.97;101043.56;5121162;27;46319;-75
2023/09/05 05:03:09;;;;;;;;;6.00;6.00;;;;;22.70;53.90;101042.94;5113304;27;45472;-72
2023/09/05 05:05:34;;;;;;;;;6.33;6.33;;;;;22.71;53.97;101044.59;5099590;27;45430;-72
2023/09/05 05:07:59;;;;;;;;;7.33;6.67;;;;;22.74;53.87;101046.03;5081415;27;45531;-72
2023/09/05 05:10:25;;;;;;;;;7.00;6.00;;;;;22.73;53.81;101039.78;5100629;27;45597;-74
2023/09/05 05:12:50;;;;;;;;;8.33;8.33;;;;;22.80;53.66;101050.59;5100565;27;45330;-73
2023/09/05 05:15:15;;;;;;;;;9.00;7.00;;;;;22.85;53.71;101055.41;5099441;27;45294;-73
2023/09/05 05:17:41;;;;;;;;;6.67;6.67;;;;;22.71;53.27;101013.94;5099650;27;45323;-76
2023/09/05 05:20:07;;;;;;;;;7.67;7.67;;;;;22.11;53.23;100915.91;5099212;27;46335;-73
2023/09/05 05:22:33;;;;;;;;;7.75;7.75;;;;;22.91;53.41;101035.56;5081455;27;45541;-73
2023/09/05 05:24:59;;;;;;;;;6.00;6.00;;;;;22.92;53.36;101042.63;5100927;27;45366;-73
2023/09/05 05:27:25;;;;;;;;;5.67;5.67;;;;;22.94;53.14;101040.53;5100111;27;45232;-72
2023/09/05 05:29:52;;;;;;;;;8.33;6.33;;;;;22.76;53.52;101009.53;5099077;27;47099;-73
2023/09/05 05:32:17;;;;;;;;;8.67;7.33;;;;;22.96;53.52;101044.69;5103584;27;45484;-73
2023/09/05 05:34:42;;;;;;;;;7.00;7.00;;;;;23.00;53.33;101051.34;5119018;27;45561;-72
2023/09/05 05:37:08;;;;;;;;;9.33;8.00;;;;;22.89;52.89;101029.53;5099782;27;45474;-74
2023/09/05 05:39:33;;;;;;;;;7.33;6.67;;;;;22.96;53.06;101039.25;5100718;27;48733;-72
2023/09/05 05:41:59;;;;;;;;;9.00;8.00;;;;;22.94;53.26;101060.34;5119770;27;45227;-74
2023/09/05 05:44:24;;;;;;;;;9.33;9.33;;;;;22.93;53.67;101060.56;5119738;27;45475;-74
2023/09/05 05:46:49;;;;;;;;;7.67;7.67;;;;;22.70;53.62;101020.41;5102381;27;45558;-74
2023/09/05 05:49:15;;;;;;;;;5.00;5.00;;;;;22.62;53.71;101012.53;5080359;27;60073;-73
2023/09/05 05:51:40;;;;;;;;;11.33;9.00;;;;;22.79;53.44;101048.94;5094773;27;45347;-75
2023/09/05 05:54:07;;;;;;;;;7.00;5.67;;;;;22.92;53.36;101048.88;5111832;27;45493;-74
2023/09/05 05:56:32;;;;;;;;;9.00;8.00;;;;;22.59;53.58;101000.25;5105851;27;45405;-74
2023/09/05 05:58:57;;;;;;;;;8.50;7.25;;;;;22.82;53.21;101016.00;5098593;27;45887;-73
2023/09/05 06:01:23;;;;;;;;;7.00;7.00;;;;;22.80;52.96;101022.66;5098620;27;45338;-71
2023/09/05 06:03:48;;;;;;;;;8.67;8.33;;;;;22.91;53.61;101040.97;5098698;27;45311;-75
2023/09/05 06:06:14;;;;;;;;;7.33;7.33;;;;;22.92;53.38;101043.47;5080541;27;45618;-72
2023/09/05 06:08:40;;;;;;;;;8.00;7.00;;;;;22.94;52.78;101041.38;5105486;27;45502;-74
2023/09/05 06:11:05;;;;;;;;;6.00;6.00;;;;;23.06;52.85;101060.50;5114190;27;45384;-74
2023/09/05 06:13:31;;;;;;;;;8.00;7.00;;;;;23.11;52.72;101063.38;5103442;27;45455;-76
2023/09/05 06:15:57;;;;;;;;;9.00;7.33;;;;;22.84;52.90;101018.50;5119489;27;45498;-74
2023/09/05 06:18:23;;;;;;;;;5.00;4.00;;;;;22.97;52.99;101045.53;5120425;27;46004;-77
2023/09/05 06:20:48;;;;;;;;;6.00;6.00;;;;;23.21;52.66;101071.84;5119585;27;45273;-73
2023/09/05 06:23:13;;;;;;;;;8.00;6.33;;;;;23.41;53.02;101063.56;5099573;27;61117;-71
2023/09/05 06:25:39;;;;;;;;;1.33;1.33;;;;;23.64;52.07;101068.44;5117711;27;45342;-73
2023/09/05 06:28:05;;;;;;;;;7.00;7.00;;;;;23.94;51.52;101068.56;5099966;27;47429;-72
2023/09/05 06:30:30;;;;;;;;;7.00;6.33;;;;;24.24;50.77;101074.13;5118680;27;45805;-74
2023/09/05 06:32:55;;;;;;;;;7.00;6.67;;;;;24.52;49.89;101077.16;5118904;27;45540;-75
2023/09/05 06:35:21;;;;;;;;;6.67;6.00;;;;;24.76;48.84;101071.84;5118939;27;45351;-72
2023/09/05 06:37:55;;;;;;;;;9.00;8.00;;;;;24.98;48.55;101074.88;5118862;27;45460;-72
2023/09/05 06:40:21;;;;;;;;;9.00;9.00;;;;;25.14;47.98;101063.38;5118745;27;45276;-74
2023/09/05 06:42:46;;;;;;;;;3.67;3.67;;;;;25.40;47.95;101073.00;5099993;27;45398;-74
2023/09/05 06:45:12;;;;;;;;;5.00;5.00;;;;;25.50;47.19;101047.94;5113826;27;45365;-72
2023/09/05 06:47:37;;;;;;;;;6.33;6.00;;;;;25.72;46.71;101041.72;5106806;27;46300;-74
2023/09/05 06:50:06;;;;;;;;;6.00;6.00;;;;;26.14;46.18;101059.81;5100047;27;45537;-75
2023/09/05 06:52:32;;;;;;;;;8.33;6.33;;;;;26.46;44.86;101071.16;5097581;27;45605;-75
2023/09/05 06:54:57;;;;;;;;;7.00;7.00;;;;;26.42;44.71;101029.06;5101172;27;45450;-76
2023/09/05 06:57:22;;;;;;;;;6.75;6.75;;;;;26.26;44.32;100963.34;5092093;27;46396;-74
2023/09/05 06:59:51;;;;;;;;;8.00;6.00;;;;;26.96;43.72;101054.97;5097640;27;45434;-74
2023/09/05 07:02:17;;;;;;;;;8.00;8.00;;;;;27.34;43.53;101064.41;5087820;27;45683;-71
2023/09/05 07:04:43;;;;;;;;;7.00;7.00;;;;;27.21;42.46;101009.03;5116175;27;45345;-72
2023/09/05 07:07:08;;;;;;;;;8.33;7.33;;;;;27.65;42.88;101047.47;5083904;27;49005;-72
2023/09/05 07:09:34;;;;;;;;;6.00;6.00;;;;;27.96;41.75;101062.41;5091650;27;45528;-73
2023/09/05 07:11:59;;;;;;;;;5.67;5.67;;;;;27.93;41.51;101049.25;5095599;27;45455;-72
2023/09/05 07:14:25;;;;;;;;;6.33;6.33;;;;;28.26;41.56;101077.63;5100011;27;45589;-71
2023/09/05 07:16:50;;;;;;;;;5.67;5.67;;;;;28.37;40.85;101061.06;5106017;27;46316;-71
2023/09/05 07:19:17;;;;;;;;;7.33;7.00;;;;;28.56;41.00;101075.25;5084359;27;45463;-75
2023/09/05 07:21:43;;;;;;;;;7.00;6.00;;;;;28.87;40.18;101081.13;5101521;27;45292;-72
2023/09/05 07:24:13;;;;;;;;;7.00;7.00;;;;;28.84;39.54;101048.78;5097455;27;45383;-72
2023/09/05 07:26:40;;;;;;;;;6.00;6.00;;;;;29.22;39.28;101081.47;5097447;27;45621;-73
2023/09/05 07:29:10;;;;;;;;;7.00;7.00;;;;;29.33;39.08;101074.19;5098630;27;45271;-71
2023/09/05 07:31:37;;;;;;;;;6.67;4.33;;;;;29.40;38.93;101074.78;5104974;27;45505;-73
2023/09/05 07:34:02;;;;;;;;;7.67;6.67;;;;;29.58;38.65;101088.09;5098066;27;45622;-73
2023/09/05 07:36:27;;;;;;;;;6.00;5.67;;;;;29.72;38.10;101090.41;5103669;27;45449;-73
2023/09/05 07:38:53;;;;;;;;;6.67;5.33;;;;;29.86;38.26;101073.25;5096272;27;45401;-74
2023/09/05 07:41:19;;;;;;;;;7.33;7.00;;;;;30.01;37.50;101064.28;5090668;27;45367;-74
2023/09/05 07:43:44;;;;;;;;;6.33;6.33;;;;;30.26;37.48;101067.22;5101221;27;45508;-74
2023/09/05 07:46:11;;;;;;;;;5.33;4.33;;;;;30.37;36.91;101035.16;5099691;27;46239;-75
2023/09/05 07:48:37;;;;;;;;;6.33;5.00;;;;;30.78;36.44;101051.78;5091523;27;45561;-72
2023/09/05 07:51:05;;;;;;;;;9.33;8.33;;;;;31.35;35.66;101065.34;5080191;27;45274;-76
2023/09/05 07:53:32;;;;;;;;;8.00;7.33;;;;;31.35;35.41;101012.31;5094387;27;45539;-74
2023/09/05 07:55:57;;;;;;;;;5.00;5.00;;;;;32.01;34.50;101069.94;5096566;27;46374;-75
2023/09/05 07:58:23;;;;;;;;;11.00;9.00;;;;;32.27;34.64;101057.00;5084429;27;46644;-74
2023/09/05 08:00:49;;;;;;;;;8.00;8.00;;;;;32.73;34.30;101071.34;5099477;27;45524;-76
2023/09/05 08:03:16;;;;;;;;;8.67;7.00;;;;;33.02;33.14;101062.38;5093261;27;45475;-73
2023/09/05 08:05:41;;;;;;;;;6.67;6.67;;;;;33.34;33.26;101073.75;5105885;27;46319;-77
2023/09/05 08:08:06;;;;;;;;;8.00;8.00;;;;;33.51;31.67;101043.84;5095698;27;45260;-75
2023/09/05 08:10:33;;;;;;;;;7.33;5.67;;;;;33.67;31.77;101076.78;5096593;27;45312;-78
2023/09/05 08:12:59;;;;;;;;;7.00;7.00;;;;;33.68;32.15;101056.38;5097487;27;45290;-72
2023/09/05 08:15:24;;;;;;;;;7.00;7.00;;;;;33.80;32.11;101070.56;5095456;27;45856;-75
2023/09/05 08:17:49;;;;;;;;;9.00;9.00;;;;;33.86;31.97;101077.72;5097664;27;45211;-71
2023/09/05 08:20:16;;;;;;;;;6.33;5.00;;;;;33.62;32.49;101079.56;5096368;27;45581;-78
2023/09/05 08:22:44;;;;;;;;;5.33;5.33;;;;;33.40;32.53;101072.59;5096930;27;45387;-72
2023/09/05 08:25:09;;;;;;;;;7.67;7.67;;;;;33.37;32.78;101081.44;5099512;27;46462;-74
2023/09/05 08:27:35;;;;;;;;;7.67;7.67;;;;;32.65;32.28;100983.88;5104558;27;45451;-73
2023/09/05 08:30:00;;;;;;;;;8.67;7.33;;;;;33.16;32.97;101077.16;5105103;27;45461;-72
2023/09/05 08:32:26;;;;;;;;;7.00;7.00;;;;;33.27;32.64;101079.56;5101977;27;45169;-72
2023/09/05 08:34:51;;;;;;;;;8.00;8.00;;;;;33.16;32.61;101083.50;5099466;27;46518;-72
2023/09/05 08:37:16;;;;;;;;;15.67;13.00;;;;;33.21;32.98;101060.59;5099000;27;45508;-74
2023/09/05 08:39:42;;;;;;;;;9.00;7.33;;;;;33.36;32.72;101041.22;5081447;27;45774;-72
2023/09/05 08:42:08;;;;;;;;;15.33;13.00;;;;;33.87;32.27;101079.38;5081241;27;45419;-74
2023/09/05 08:44:42;;;;;;;;;5.33;5.33;;;;;34.09;32.36;101084.38;5100368;27;45588;-71
2023/09/05 08:47:08;;;;;;;;;7.00;7.00;;;;;34.26;31.44;101057.13;5103780;27;45402;-71
2023/09/05 08:49:34;;;;;;;;;7.67;7.67;;;;;34.41;30.97;101039.56;5106982;27;45469;-70
2023/09/05 08:52:03;;;;;;;;;6.33;6.33;;;;;34.74;30.63;101080.00;5099363;27;45534;-74
2023/09/05 08:54:29;;;;;;;;;11.00;10.00;;;;;34.83;30.61;101071.03;5097278;27;47488;-71
2023/09/05 08:56:57;;;;;;;;;7.00;5.67;;;;;35.09;30.83;101094.44;5099809;27;45423;-72
2023/09/05 08:59:25;;;;;;;;;6.33;6.33;;;;;35.25;30.09;101103.31;5101928;27;45520;-73
2023/09/05 09:01:50;;;;;;;;;8.33;8.33;;;;;35.25;30.20;101097.78;5091794;27;45322;-77
2023/09/05 09:04:16;;;;;;;;;8.00;7.00;;;;;35.41;29.87;101098.38;5105251;27;46701;-73
2023/09/05 09:06:43;;;;;;;;;5.67;5.33;;;;;35.22;29.81;101087.31;5100617;27;45399;-72
2023/09/05 09:09:35;;;;;;;;;9.00;7.00;;;;;35.28;29.66;101100.78;5104943;27;45319;-71
2023/09/05 09:12:01;;;;;;;;;8.67;8.67;;;;;35.22;29.82;101085.38;5092760;27;45698;-73
2023/09/05 09:14:27;;;;;;;;;7.33;7.33;;;;;35.06;30.33;101050.81;5108945;27;45691;-74
2023/09/05 09:16:53;;;;;;;;;9.33;7.67;;;;;35.45;29.35;101086.44;5099145;27;61374;-72
2023/09/05 09:19:18;;;;;;;;;8.33;6.33;;;;;35.62;29.88;101092.19;5099510;27;45374;-73
2023/09/05 09:21:46;;;;;;;;;10.33;7.67;;;;;35.97;29.93;101089.94;5099836;27;45454;-76
2023/09/05 09:24:15;;;;;;;;;8.67;6.67;;;;;36.14;29.09;101064.44;5084810;27;47128;-72
2023/09/05 09:26:41;;;;;;;;;7.00;7.00;;;;;36.64;28.51;101072.81;5098600;27;45215;-71
2023/09/05 09:29:10;;;;;;;;;9.00;8.00;;;;;37.16;27.83;101099.06;5097529;27;45863;-75
2023/09/05 09:31:37;;;;;;;;;10.00;8.00;;;;;37.40;27.49;101088.50;5090833;27;45805;-72
2023/09/05 09:34:03;;;;;;;;;9.67;7.67;;;;;37.81;26.17;101104.13;5102491;27;45925;-72
2023/09/05 09:36:34;;;;;;;;;8.33;8.00;;;;;37.85;26.26;101088.50;5100176;27;45468;-72
2023/09/05 09:39:07;;;;;;;;;7.67;7.33;;;;;38.09;26.59;101074.22;5097048;27;45848;-71
2023/09/05 09:41:32;;;;;;;;;7.00;6.00;;;;;38.44;26.76;101091.00;5103532;27;45336;-72
2023/09/05 09:43:58;;;;;;;;;8.33;6.33;;;;;38.53;25.92;101073.22;5112798;27;45703;-73
2023/09/05 09:46:24;;;;;;;;;9.00;8.00;;;;;38.57;26.31;101076.16;5113008;27;46641;-70
2023/09/05 09:48:52;;;;;;;;;8.00;7.00;;;;;38.44;26.89;101083.47;5102600;27;46403;-72
2023/09/05 09:51:21;;;;;;;;;7.67;7.67;;;;;38.43;26.35;101083.81;5098934;27;45450;-76
2023/09/05 09:53:48;;;;;;;;;8.00;7.00;;;;;37.86;26.98;101039.34;5097656;27;46477;-71
2023/09/05 09:56:19;;;;;;;;;9.00;9.00;;;;;37.84;27.28;101081.28;5098269;27;45551;-70
2023/09/05 09:58:46;;;;;;;;;9.67;9.00;;;;;37.51;27.21;101074.38;5097840;27;45478;-73
2023/09/05 10:01:13;;;;;;;;;9.33;8.00;;;;;37.26;28.27;101073.91;5097107;27;45539;-71
2023/09/05 10:03:41;;;;;;;;;7.33;7.33;;;;;36.94;28.23;101076.88;5101140;27;45703;-69
2023/09/05 10:06:07;;;;;;;;;8.67;7.00;;;;;36.44;29.05;101050.00;5102855;27;45324;-73
2023/09/05 10:08:34;;;;;;;;;8.33;5.33;;;;;36.26;29.69;101070.28;5098062;27;45300;-71
2023/09/05 10:11:00;;;;;;;;;8.33;8.33;;;;;35.96;29.76;101068.94;5098992;27;45583;-71
2023/09/05 10:13:30;;;;;;;;;8.00;8.00;;;;;35.66;29.73;101070.31;5110402;27;47317;-76
2023/09/05 10:15:56;;;;;;;;;9.33;9.33;;;;;35.01;30.42;101021.31;5108585;27;45517;-69
2023/09/05 10:18:22;;;;;;;;;8.67;7.33;;;;;35.04;30.72;101066.84;5100679;27;45397;-74
2023/09/05 10:20:52;;;;;;;;;9.00;8.00;;;;;34.75;31.11;101078.88;5105116;27;45742;-70
2023/09/05 10:23:18;;;;;;;;;9.00;6.67;;;;;34.50;31.59;101073.69;5105812;27;45472;-70
2023/09/05 10:25:45;;;;;;;;;8.00;8.00;;;;;34.13;32.31;101042.09;5098935;27;45524;-69
2023/09/05 10:28:10;;;;;;;;;8.00;7.00;;;;;34.05;32.58;101073.13;5083833;27;45511;-70
2023/09/05 10:30:40;;;;;;;;;8.00;8.00;;;;;33.81;32.36;101058.41;5091208;27;45389;-72
2023/09/05 10:33:08;;;;;;;;;10.67;9.00;;;;;33.13;33.10;100975.81;5097747;27;45930;-69
2023/09/05 10:35:33;;;;;;;;;10.67;9.33;;;;;33.33;33.25;101030.78;5097630;27;46614;-76
2023/09/05 10:38:01;;;;;;;;;8.33;8.33;;;;;33.24;33.29;101071.06;5098078;27;45243;-69
2023/09/05 10:40:37;;;;;;;;;8.33;7.33;;;;;32.90;33.83;101066.34;5097960;27;45486;-69
2023/09/05 10:43:05;;;;;;;;;9.00;8.33;;;;;32.65;34.30;101045.25;5100951;27;45707;-69
2023/09/05 10:45:33;;;;;;;;;6.00;6.00;;;;;32.36;34.64;101001.06;5100851;27;45471;-70
2023/09/05 10:48:11;;;;;;;;;9.33;8.33;;;;;32.60;34.16;101049.94;5097491;27;45502;-70
2023/09/05 10:51:12;;;;;;;;;8.67;8.67;;;;;32.52;34.35;101039.53;5087006;27;45489;-69
2023/09/05 10:53:49;;;;;;;;;10.33;8.00;;;;;32.40;34.66;101041.78;5101353;27;47084;-71
2023/09/05 10:56:51;;;;;;;;;8.00;7.00;;;;;32.31;34.50;101047.88;5102056;27;45694;-70
2023/09/05 10:59:27;;;;;;;;;7.67;7.00;;;;;32.21;34.31;101047.06;5099329;27;45515;-69
2023/09/05 11:02:01;;;;;;;;;8.50;7.00;;;;;31.94;34.19;101012.50;5099859;27;45512;-71
2023/09/05 11:04:29;;;;;;;;;7.33;7.33;;;;;32.04;34.57;101031.75;5080974;27;48441;-71
2023/09/05 11:07:21;;;;;;;;;9.33;9.33;;;;;32.10;34.31;101049.03;5097243;27;45363;-69
2023/09/05 11:09:54;;;;;;;;;9.00;8.00;;;;;32.00;34.10;101035.31;5094457;27;45474;-77
2023/09/05 11:12:20;;;;;;;;;12.00;10.33;;;;;32.01;34.41;101043.28;5095916;27;45438;-70
2023/09/05 11:14:46;;;;;;;;;13.00;8.67;;;;;31.72;34.23;101004.59;5097297;27;46324;-71
2023/09/05 11:17:13;;;;;;;;;10.00;10.00;;;;;32.04;34.46;101047.41;5097143;27;45500;-69
2023/09/05 11:19:42;;;;;;;;;6.00;6.00;;;;;32.02;34.15;101055.09;5095930;27;45482;-70
2023/09/05 11:22:17;;;;;;;;;6.33;6.33;;;;;31.91;34.33;101037.00;5097066;27;45508;-70
2023/09/05 11:24:47;;;;;;;;;8.00;7.00;;;;;32.00;34.54;101046.31;5101129;27;45938;-69